createdAt,value
2019-01-05T00:01:22.693Z,7.72
2019-01-05T00:04:30.852Z,7.98
2019-01-05T00:07:39.235Z,7.78
2019-01-05T00:10:47.341Z,8.05
2019-01-05T00:13:55.811Z,8.13
2019-01-05T00:20:42.507Z,7.78
2019-01-05T00:23:50.813Z,7.92
2019-01-05T00:30:18.183Z,7.60
2019-01-05T00:33:26.363Z,7.78
2019-01-05T00:36:57.756Z,7.95
2019-01-05T00:40:30.345Z,7.92
2019-01-05T01:06:28.564Z,7.93
2019-01-05T01:09:29.406Z,7.87
2019-01-05T01:12:37.502Z,7.94
2019-01-05T01:19:00.886Z,8.08
2019-01-05T01:25:33.251Z,8.24
2019-01-05T01:32:02.606Z,8.07
2019-01-05T01:35:10.920Z,8.00
2019-01-05T01:38:57.469Z,7.82
2019-01-05T01:42:05.776Z,8.09
2019-01-05T01:48:50.059Z,8.18
2019-01-05T01:51:58.253Z,8.10
2019-01-05T01:55:06.461Z,8.01
2019-01-05T01:58:35.290Z,8.04
2019-01-05T02:01:43.793Z,8.37
2019-01-05T02:04:51.963Z,8.38
2019-01-05T02:08:20.805Z,8.23
2019-01-05T02:15:09.782Z,8.01
2019-01-05T02:18:56.572Z,8.31
2019-01-05T02:22:43.114Z,8.41
2019-01-05T02:26:25.965Z,8.49
2019-01-05T02:37:35.085Z,8.26
2019-01-05T02:41:21.644Z,8.24
2019-01-05T02:45:08.176Z,8.23
2019-01-05T02:48:54.704Z,8.08
2019-01-05T02:56:17.669Z,8.09
2019-01-05T02:59:51.373Z,7.91
2019-01-05T03:03:32.573Z,8.13
2019-01-05T03:07:09.469Z,8.13
2019-01-05T03:10:56.016Z,8.00
2019-01-05T03:18:23.020Z,8.02
2019-01-05T03:22:09.615Z,8.16
2019-01-05T03:25:56.268Z,7.91
2019-01-05T03:29:38.982Z,7.88
2019-01-05T03:37:13.237Z,7.78
2019-01-05T03:40:50.798Z,7.73
2019-01-05T03:48:17.719Z,7.82
2019-01-05T03:52:04.495Z,7.89
2019-01-05T03:55:46.654Z,7.82
2019-01-05T03:59:33.417Z,7.91
2019-01-05T04:03:19.956Z,7.95
2019-01-05T04:07:06.572Z,7.97
2019-01-05T04:10:53.064Z,7.91
2019-01-05T04:14:19.058Z,7.67
2019-01-05T04:18:05.578Z,7.93
2019-01-05T04:25:24.544Z,7.91
2019-01-05T04:29:00.297Z,7.97
2019-01-05T04:36:05.670Z,8.09
2019-01-05T04:47:16.697Z,8.26
2019-01-05T04:51:03.514Z,8.23
2019-01-05T04:54:50.041Z,8.16
2019-01-05T04:58:36.580Z,8.09
2019-01-05T05:02:21.634Z,8.12
2019-01-05T05:13:24.278Z,8.28
2019-01-05T05:17:10.812Z,8.14
2019-01-05T05:24:33.392Z,8.28
2019-01-05T05:28:19.951Z,8.24
2019-01-05T05:35:23.689Z,8.08
2019-01-05T05:46:37.991Z,8.12
2019-01-05T05:50:24.518Z,7.88
2019-01-05T05:54:11.057Z,8.04
2019-01-05T05:57:57.612Z,8.14
2019-01-05T06:01:44.155Z,8.30
2019-01-05T06:05:30.687Z,8.34
2019-01-05T06:12:56.652Z,8.53
2019-01-05T06:16:30.151Z,8.54
2019-01-05T06:20:19.800Z,8.55
2019-01-05T06:24:06.592Z,8.78
2019-01-05T06:27:53.153Z,8.42
2019-01-05T06:38:49.109Z,8.63
2019-01-05T06:46:27.433Z,8.44
2019-01-05T06:50:13.969Z,8.33
2019-01-05T06:53:57.579Z,8.23
2019-01-05T06:57:44.140Z,8.07
2019-01-05T07:01:35.391Z,7.93
2019-01-05T07:05:13.508Z,8.16
2019-01-05T07:09:01.831Z,8.26
2019-01-05T07:12:38.532Z,7.97
2019-01-05T07:16:25.095Z,8.15
2019-01-05T07:20:11.621Z,8.26
2019-01-05T07:23:58.161Z,8.12
2019-01-05T07:27:47.231Z,8.30
2019-01-05T07:31:07.317Z,8.20
2019-01-05T07:34:51.603Z,8.01
2019-01-05T07:42:31.892Z,8.23
2019-01-05T07:46:18.672Z,8.17
2019-01-05T07:50:05.434Z,8.22
2019-01-05T07:53:51.970Z,8.11
2019-01-05T07:57:26.803Z,8.30
2019-01-05T08:04:57.470Z,8.13
2019-01-05T08:08:41.565Z,8.15
2019-01-05T08:12:31.127Z,8.17
2019-01-05T08:16:17.681Z,8.43
2019-01-05T08:20:04.222Z,8.29
2019-01-05T08:23:50.775Z,8.29
2019-01-05T08:27:37.308Z,8.36
2019-01-05T08:30:44.304Z,8.24
2019-01-05T08:34:30.842Z,8.43
2019-01-05T08:38:06.208Z,8.49
2019-01-05T08:41:52.747Z,8.64
2019-01-05T08:45:27.930Z,8.72
2019-01-05T08:49:14.490Z,8.42
2019-01-05T08:53:01.031Z,8.59
2019-01-05T08:56:42.070Z,8.36
2019-01-05T09:00:16.565Z,8.65
2019-01-05T09:03:49.387Z,8.53
2019-01-05T09:07:35.932Z,8.37
2019-01-05T09:11:25.517Z,8.29
2019-01-05T09:15:12.056Z,8.39
2019-01-05T09:22:38.742Z,8.81
2019-01-05T09:26:25.298Z,8.43
2019-01-05T09:30:11.856Z,8.64
2019-01-05T09:33:49.589Z,8.53
2019-01-05T09:37:30.170Z,8.61
2019-01-05T09:41:05.949Z,8.59
2019-01-05T09:44:50.588Z,8.58
2019-01-05T09:48:38.128Z,8.78
2019-01-05T09:52:25.488Z,8.72
2019-01-05T09:59:58.890Z,8.34
2019-01-05T10:03:45.419Z,8.68
2019-01-05T10:07:21.517Z,8.65
2019-01-05T10:11:08.057Z,8.96
2019-01-05T10:18:33.281Z,8.75
2019-01-05T10:22:10.149Z,8.63
2019-01-05T10:25:56.688Z,9.13
2019-01-05T10:29:43.236Z,8.73
2019-01-05T10:33:03.229Z,9.08
2019-01-05T10:36:49.767Z,8.88
2019-01-05T10:40:25.727Z,8.97
2019-01-05T10:44:12.272Z,8.78
2019-01-05T10:47:58.817Z,8.57
2019-01-05T10:51:36.861Z,8.78
2019-01-05T10:55:26.234Z,8.97
2019-01-05T10:59:13.097Z,9.08
2019-01-05T11:02:59.681Z,8.74
2019-01-05T11:14:15.659Z,9.85
2019-01-05T11:18:02.214Z,9.71
2019-01-05T11:25:31.319Z,8.90
2019-01-05T11:33:10.115Z,9.52
2019-01-05T11:36:47.703Z,9.15
2019-01-05T11:40:43.687Z,9.31
2019-01-05T11:44:43.767Z,9.34
2019-01-05T11:48:33.865Z,9.13
2019-01-05T11:52:07.899Z,9.02
2019-01-05T11:55:55.228Z,9.60
2019-01-05T11:59:50.565Z,9.37
2019-01-05T12:03:25.169Z,9.38
2019-01-05T12:06:57.043Z,9.02
2019-01-05T12:10:53.812Z,9.42
2019-01-05T12:15:07.685Z,8.86
2019-01-05T12:19:12.793Z,9.11
2019-01-05T12:23:03.307Z,8.90
2019-01-05T12:26:26.244Z,9.10
2019-01-05T12:30:23.642Z,9.09
2019-01-05T12:34:19.941Z,9.04
2019-01-05T12:38:09.197Z,9.07
2019-01-05T12:42:02.618Z,8.92
2019-01-05T12:45:45.154Z,9.33
2019-01-05T12:49:28.675Z,9.01
2019-01-05T12:53:34.045Z,9.16
2019-01-05T12:57:12.501Z,8.74
2019-01-05T13:00:50.744Z,8.89
2019-01-05T13:05:03.509Z,8.77
2019-01-05T13:08:56.299Z,8.99
2019-01-05T13:13:11.381Z,8.86
2019-01-05T13:16:54.735Z,8.94
2019-01-05T13:20:43.253Z,8.88
2019-01-05T13:24:20.716Z,8.88
2019-01-05T13:27:39.596Z,8.80
2019-01-05T13:31:23.704Z,8.77
2019-01-05T13:34:51.835Z,8.71
2019-01-05T13:38:48.335Z,8.58
2019-01-05T13:42:39.953Z,8.63
2019-01-05T13:46:22.164Z,8.77
2019-01-05T13:50:04.783Z,8.73
2019-01-05T13:53:16.479Z,8.72
2019-01-05T13:57:00.163Z,8.65
2019-01-05T13:59:40.275Z,8.66
2019-01-05T14:02:27.857Z,8.68
2019-01-05T14:05:15.998Z,8.79
2019-01-05T14:08:03.549Z,8.56
2019-01-05T14:11:01.826Z,8.80
2019-01-05T14:13:49.371Z,8.70
2019-01-05T14:16:45.638Z,9.32
2019-01-05T14:19:35.177Z,8.66
2019-01-05T14:22:24.148Z,8.84
2019-01-05T14:25:17.751Z,8.98
2019-01-05T14:28:07.033Z,8.66
2019-01-05T14:31:14.029Z,8.43
2019-01-05T14:34:01.693Z,8.53
2019-01-05T14:36:48.079Z,8.42
2019-01-05T14:39:34.068Z,8.45
2019-01-05T14:42:21.755Z,8.31
2019-01-05T14:45:11.147Z,8.47
2019-01-05T14:48:02.339Z,8.90
2019-01-05T14:50:49.738Z,9.41
2019-01-05T14:53:42.440Z,8.41
2019-01-05T14:56:28.501Z,8.48
2019-01-05T14:59:18.496Z,9.14
2019-01-05T15:02:24.957Z,9.21
2019-01-05T15:05:12.421Z,8.47
2019-01-05T15:08:00.042Z,8.54
2019-01-05T15:10:52.291Z,8.64
2019-01-05T15:13:47.652Z,8.66
2019-01-05T15:16:35.222Z,8.59
2019-01-05T15:19:27.468Z,8.98
2019-01-05T15:22:16.923Z,9.13
2019-01-05T15:25:04.211Z,8.76
2019-01-05T15:27:51.561Z,8.98
2019-01-05T15:30:43.932Z,8.72
2019-01-05T15:33:27.063Z,8.43
2019-01-05T15:36:22.190Z,8.86
2019-01-05T15:39:03.752Z,9.14
2019-01-05T15:41:51.724Z,8.54
2019-01-05T15:44:39.832Z,8.66
2019-01-05T15:47:28.760Z,8.66
2019-01-05T15:50:18.832Z,8.71
2019-01-05T15:53:03.562Z,8.84
2019-01-05T15:55:54.897Z,8.74
2019-01-05T15:58:42.571Z,8.70
2019-01-05T16:01:38.353Z,8.60
2019-01-05T16:04:27.328Z,8.71
2019-01-05T16:07:05.197Z,8.93
2019-01-05T16:09:54.162Z,8.49
2019-01-05T16:12:48.115Z,8.26
2019-01-05T16:15:39.238Z,8.02
2019-01-05T16:18:42.278Z,7.99
2019-01-05T16:21:30.067Z,7.93
2019-01-05T16:24:15.730Z,8.14
2019-01-05T16:26:59.176Z,8.28
2019-01-05T16:29:55.237Z,8.50
2019-01-05T16:32:53.154Z,8.45
2019-01-05T16:35:42.678Z,7.94
2019-01-05T16:38:30.509Z,8.14
2019-01-05T16:41:28.826Z,8.22
2019-01-05T16:44:17.278Z,8.22
2019-01-05T16:47:04.946Z,8.39
2019-01-05T16:50:06.891Z,8.36
2019-01-05T16:52:54.750Z,8.52
2019-01-05T16:55:53.693Z,8.05
2019-01-05T16:58:41.478Z,8.04
2019-01-05T17:01:42.771Z,8.18
2019-01-05T17:04:34.700Z,8.29
2019-01-05T17:07:22.447Z,8.68
2019-01-05T17:10:03.023Z,8.22
2019-01-05T17:12:51.104Z,7.78
2019-01-05T17:15:33.914Z,7.94
2019-01-05T17:18:23.168Z,8.23
2019-01-05T17:21:08.459Z,8.66
2019-01-05T17:23:50.234Z,8.46
2019-01-05T17:26:31.448Z,7.76
2019-01-05T17:29:26.724Z,7.83
2019-01-05T17:32:19.093Z,7.92
2019-01-05T17:35:06.742Z,8.10
2019-01-05T17:37:58.415Z,8.42
2019-01-05T17:40:52.314Z,8.13
2019-01-05T17:43:39.684Z,7.67
2019-01-05T17:46:28.625Z,7.42
2019-01-05T17:49:26.311Z,7.16
2019-01-05T17:52:12.752Z,7.21
2019-01-05T17:55:03.957Z,7.38
2019-01-05T17:57:51.896Z,7.18
2019-01-05T18:00:50.813Z,7.35
2019-01-05T18:03:47.255Z,7.49
2019-01-05T18:06:52.654Z,6.87
2019-01-05T18:09:48.373Z,6.72
2019-01-05T18:12:42.680Z,7.11
2019-01-05T18:15:24.294Z,6.90
2019-01-05T18:18:23.411Z,7.04
2019-01-05T18:21:12.512Z,6.39
2019-01-05T18:23:51.142Z,6.81
2019-01-05T18:26:38.447Z,6.66
2019-01-05T18:29:26.084Z,6.97
2019-01-05T18:32:13.549Z,6.76
2019-01-05T18:35:16.973Z,6.20
2019-01-05T18:38:00.248Z,6.32
2019-01-05T18:40:47.978Z,6.24
2019-01-05T18:43:35.618Z,6.36
2019-01-05T18:46:36.683Z,6.46
2019-01-05T18:49:19.897Z,6.80
2019-01-05T18:52:07.673Z,7.12
2019-01-05T18:54:55.273Z,7.11
2019-01-05T18:57:44.285Z,7.06
2019-01-05T19:00:37.911Z,7.10
2019-01-05T19:03:37.153Z,7.11
2019-01-05T19:06:35.090Z,7.16
2019-01-05T19:09:25.725Z,6.80
2019-01-05T19:12:13.420Z,7.02
2019-01-05T19:15:17.269Z,6.85
2019-01-05T19:18:07.444Z,7.20
2019-01-05T19:21:04.408Z,6.12
2019-01-05T19:24:07.161Z,5.11
2019-01-05T19:27:06.555Z,6.02
2019-01-05T19:29:50.484Z,4.91
2019-01-05T19:32:38.286Z,5.00
2019-01-05T19:35:25.903Z,4.76
2019-01-05T19:38:30.119Z,5.18
2019-01-05T19:41:17.719Z,5.30
2019-01-05T19:44:05.006Z,5.75
2019-01-05T19:46:54.815Z,5.99
2019-01-05T19:49:41.784Z,6.25
2019-01-05T19:52:28.103Z,6.85
2019-01-05T19:55:19.841Z,6.59
2019-01-05T19:58:07.142Z,6.32
2019-01-05T20:00:57.136Z,5.98
2019-01-05T20:03:54.823Z,6.27
2019-01-05T20:06:54.639Z,6.67
2019-01-05T20:09:45.656Z,6.06
2019-01-05T20:12:41.872Z,6.40
2019-01-05T20:15:44.275Z,6.06
2019-01-05T20:18:31.840Z,6.34
2019-01-05T20:21:17.900Z,6.03
2019-01-05T20:24:05.604Z,6.58
2019-01-05T20:27:10.032Z,6.13
2019-01-05T20:29:52.329Z,6.16
2019-01-05T20:32:47.056Z,6.11
2019-01-05T20:35:36.705Z,5.98
2019-01-05T20:38:27.580Z,6.16
2019-01-05T20:41:15.223Z,6.06
2019-01-05T20:44:03.240Z,5.74
2019-01-05T20:47:04.526Z,5.71
2019-01-05T20:50:02.373Z,6.09
2019-01-05T20:52:49.141Z,6.06
2019-01-05T20:55:36.712Z,6.36
2019-01-05T20:58:24.031Z,6.20
2019-01-05T21:01:12.929Z,5.88
2019-01-05T21:04:02.735Z,5.80
2019-01-05T21:06:48.645Z,5.54
2019-01-05T21:09:36.523Z,5.72
2019-01-05T21:12:24.176Z,5.76
2019-01-05T21:15:08.342Z,5.68
2019-01-05T21:17:57.295Z,5.65
2019-01-05T21:20:44.992Z,5.67
2019-01-05T21:23:25.992Z,5.83
2019-01-05T21:26:24.751Z,5.69
2019-01-05T21:29:12.413Z,5.66
2019-01-05T21:32:13.557Z,5.65
2019-01-05T21:34:59.968Z,5.45
2019-01-05T21:37:47.378Z,5.60
2019-01-05T21:40:35.475Z,5.42
2019-01-05T21:43:34.490Z,5.92
2019-01-05T21:46:22.865Z,5.80
2019-01-05T21:49:16.104Z,6.01
2019-01-05T21:52:14.868Z,6.16
2019-01-05T21:55:02.843Z,6.43
2019-01-05T21:57:50.610Z,6.77
2019-01-05T22:00:52.137Z,6.77
2019-01-05T22:03:49.123Z,6.34
2019-01-05T22:06:36.644Z,6.33
2019-01-05T22:09:33.829Z,6.62
2019-01-05T22:12:21.745Z,6.58
2019-01-05T22:15:23.098Z,6.96
2019-01-05T22:18:23.342Z,6.67
2019-01-05T22:21:10.973Z,6.78
2019-01-05T22:24:10.702Z,6.54
2019-01-05T22:26:58.813Z,6.80
2019-01-05T22:29:54.847Z,6.67
2019-01-05T22:32:50.352Z,6.45
2019-01-05T22:35:37.478Z,6.44
2019-01-05T22:38:31.284Z,6.26
2019-01-05T22:41:20.436Z,6.90
2019-01-05T22:44:08.983Z,6.99
2019-01-05T22:47:10.952Z,7.04
2019-01-05T22:49:56.274Z,6.72
2019-01-05T22:52:48.535Z,6.76
2019-01-05T22:55:36.875Z,6.88
2019-01-05T22:58:36.658Z,6.65
2019-01-05T23:01:35.890Z,6.17
2019-01-05T23:04:20.315Z,6.22
2019-01-05T23:07:08.684Z,6.31
2019-01-05T23:09:57.878Z,6.37
2019-01-05T23:13:06.966Z,6.67
2019-01-05T23:15:54.386Z,6.95
2019-01-05T23:18:38.693Z,6.92
2019-01-05T23:21:26.500Z,6.70
2019-01-05T23:24:19.023Z,6.82
2019-01-05T23:27:08.353Z,6.78
2019-01-05T23:30:04.664Z,6.66
2019-01-05T23:32:56.775Z,6.84
2019-01-05T23:35:58.377Z,6.80
2019-01-05T23:38:54.606Z,6.78
2019-01-05T23:41:45.257Z,6.69
2019-01-05T23:44:38.790Z,6.70
2019-01-05T23:47:37.292Z,6.60
2019-01-05T23:50:27.009Z,6.26
2019-01-05T23:53:13.376Z,6.37
2019-01-05T23:56:20.244Z,6.38
2019-01-05T23:59:18.557Z,6.44
